sensor_id;sensor_type;location;lat;lon;timestamp;pressure;altitude;pressure_sealevel;temperature;humidity
7760;BME280;3924;48.830;9.262;2023-03-25T00:00:23;98030.25;;;9.66;78.51
7760;BME280;3924;48.830;9.262;2023-03-25T00:02:50;98032.47;;;9.64;78.60
7760;BME280;3924;48.830;9.262;2023-03-25T00:05:19;98019.09;;;9.53;78.74
7760;BME280;3924;48.830;9.262;2023-03-25T00:07:48;98019.59;;;9.42;78.97
7760;BME280;3924;48.830;9.262;2023-03-25T00:10:16;98009.66;;;9.37;78.82
7760;BME280;3924;48.830;9.262;2023-03-25T00:12:42;98004.56;;;9.36;79.07
7760;BME280;3924;48.830;9.262;2023-03-25T00:15:11;98002.97;;;9.35;79.03
7760;BME280;3924;48.830;9.262;2023-03-25T00:17:38;97997.81;;;9.33;79.12
7760;BME280;3924;48.830;9.262;2023-03-25T00:20:06;97992.72;;;9.31;79.05
7760;BME280;3924;48.830;9.262;2023-03-25T00:22:36;98000.03;;;9.31;79.15
7760;BME280;3924;48.830;9.262;2023-03-25T00:25:11;97997.31;;;9.31;79.27
7760;BME280;3924;48.830;9.262;2023-03-25T00:27:41;97998.13;;;9.31;79.17
7760;BME280;3924;48.830;9.262;2023-03-25T00:30:10;98000.34;;;9.29;79.33
7760;BME280;3924;48.830;9.262;2023-03-25T00:32:36;98007.97;;;9.27;79.44
7760;BME280;3924;48.830;9.262;2023-03-25T00:35:05;98004.16;;;9.28;79.36
7760;BME280;3924;48.830;9.262;2023-03-25T00:37:33;98007.44;;;9.25;79.20
7760;BME280;3924;48.830;9.262;2023-03-25T00:40:00;97998.03;;;9.23;79.23
7760;BME280;3924;48.830;9.262;2023-03-25T00:42:26;98005.34;;;9.22;79.48
7760;BME280;3924;48.830;9.262;2023-03-25T00:44:53;98006.13;;;9.23;79.34
7760;BME280;3924;48.830;9.262;2023-03-25T00:47:19;98005.34;;;9.22;79.26
7760;BME280;3924;48.830;9.262;2023-03-25T00:49:48;98007.72;;;9.24;79.53
7760;BME280;3924;48.830;9.262;2023-03-25T00:52:15;98002.81;;;9.26;79.22
7760;BME280;3924;48.830;9.262;2023-03-25T00:54:41;98005.53;;;9.26;79.41
7760;BME280;3924;48.830;9.262;2023-03-25T00:57:08;97995.00;;;9.24;79.46
7760;BME280;3924;48.830;9.262;2023-03-25T00:59:35;97991.50;;;9.24;79.24
7760;BME280;3924;48.830;9.262;2023-03-25T01:02:01;97982.91;;;9.22;79.24
7760;BME280;3924;48.830;9.262;2023-03-25T01:04:28;97976.16;;;9.19;79.29
7760;BME280;3924;48.830;9.262;2023-03-25T01:06:55;97982.97;;;9.17;79.58
7760;BME280;3924;48.830;9.262;2023-03-25T01:09:21;97974.28;;;9.20;79.45
7760;BME280;3924;48.830;9.262;2023-03-25T01:11:48;97978.06;;;9.19;79.40
7760;BME280;3924;48.830;9.262;2023-03-25T01:14:18;97963.56;;;9.15;79.63
7760;BME280;3924;48.830;9.262;2023-03-25T01:16:45;97961.34;;;9.17;79.44
7760;BME280;3924;48.830;9.262;2023-03-25T01:19:12;97970.47;;;9.21;79.50
7760;BME280;3924;48.830;9.262;2023-03-25T01:21:39;97977.25;;;9.18;79.18
7760;BME280;3924;48.830;9.262;2023-03-25T01:24:07;97973.25;;;9.16;79.29
7760;BME280;3924;48.830;9.262;2023-03-25T01:26:36;97971.75;;;9.10;79.56
7760;BME280;3924;48.830;9.262;2023-03-25T01:29:03;97973.66;;;9.09;79.13
7760;BME280;3924;48.830;9.262;2023-03-25T01:31:29;97967.44;;;9.09;79.12
7760;BME280;3924;48.830;9.262;2023-03-25T01:33:57;97970.72;;;9.05;79.42
7760;BME280;3924;48.830;9.262;2023-03-25T01:36:24;97963.22;;;9.02;79.29
7760;BME280;3924;48.830;9.262;2023-03-25T01:38:51;97948.59;;;9.03;79.26
7760;BME280;3924;48.830;9.262;2023-03-25T01:41:17;97946.50;;;9.00;79.23
7760;BME280;3924;48.830;9.262;2023-03-25T01:46:32;97957.81;;;9.02;79.05
7760;BME280;3924;48.830;9.262;2023-03-25T01:49:00;97943.28;;;8.98;79.13
7760;BME280;3924;48.830;9.262;2023-03-25T01:51:32;97953.59;;;8.96;79.14
7760;BME280;3924;48.830;9.262;2023-03-25T01:53:59;97961.69;;;8.96;79.33
7760;BME280;3924;48.830;9.262;2023-03-25T01:56:30;97965.50;;;8.95;79.27
7760;BME280;3924;48.830;9.262;2023-03-25T01:59:00;97965.19;;;8.97;79.33
7760;BME280;3924;48.830;9.262;2023-03-25T02:01:28;97952.00;;;8.95;79.27
7760;BME280;3924;48.830;9.262;2023-03-25T02:03:57;97951.19;;;8.95;79.33
7760;BME280;3924;48.830;9.262;2023-03-25T02:06:42;97933.16;;;8.90;79.24
7760;BME280;3924;48.830;9.262;2023-03-25T02:09:11;97932.34;;;8.90;79.40
7760;BME280;3924;48.830;9.262;2023-03-25T02:11:38;97928.53;;;8.91;79.17
7760;BME280;3924;48.830;9.262;2023-03-25T02:14:18;97925.56;;;8.92;79.09
7760;BME280;3924;48.830;9.262;2023-03-25T02:17:15;97916.13;;;8.90;79.23
7760;BME280;3924;48.830;9.262;2023-03-25T02:20:31;97936.38;;;8.92;79.04
7760;BME280;3924;48.830;9.262;2023-03-25T02:34:06;97941.38;;;8.99;79.06
7760;BME280;3924;48.830;9.262;2023-03-25T02:36:52;97943.78;;;9.00;78.93
7760;BME280;3924;48.830;9.262;2023-03-25T02:41:57;97956.78;;;8.98;79.06
7760;BME280;3924;48.830;9.262;2023-03-25T02:47:18;97971.22;;;8.94;79.11
7760;BME280;3924;48.830;9.262;2023-03-25T02:49:57;98012.63;;;8.89;79.15
7760;BME280;3924;48.830;9.262;2023-03-25T02:52:28;98031.38;;;8.67;78.53
7760;BME280;3924;48.830;9.262;2023-03-25T02:55:00;98052.03;;;7.67;77.85
7760;BME280;3924;48.830;9.262;2023-03-25T02:57:32;98048.50;;;6.79;80.64
7760;BME280;3924;48.830;9.262;2023-03-25T03:00:02;98021.22;;;6.52;80.80
7760;BME280;3924;48.830;9.262;2023-03-25T03:02:35;98015.59;;;6.38;81.72
7760;BME280;3924;48.830;9.262;2023-03-25T03:05:21;97995.94;;;6.43;82.08
7760;BME280;3924;48.830;9.262;2023-03-25T03:07:52;97980.28;;;6.50;82.14
7760;BME280;3924;48.830;9.262;2023-03-25T03:10:25;97982.94;;;6.55;82.66
7760;BME280;3924;48.830;9.262;2023-03-25T03:13:28;97976.91;;;6.68;82.57
7760;BME280;3924;48.830;9.262;2023-03-25T03:16:07;97977.41;;;6.75;82.71
7760;BME280;3924;48.830;9.262;2023-03-25T03:18:43;97974.19;;;6.73;82.65
7760;BME280;3924;48.830;9.262;2023-03-25T03:21:21;97960.09;;;6.81;83.34
7760;BME280;3924;48.830;9.262;2023-03-25T03:26:39;97957.09;;;6.88;83.65
7760;BME280;3924;48.830;9.262;2023-03-25T03:29:13;97952.78;;;6.87;83.91
7760;BME280;3924;48.830;9.262;2023-03-25T03:34:38;97972.13;;;6.94;84.41
7760;BME280;3924;48.830;9.262;2023-03-25T03:37:15;97974.75;;;6.99;84.50
7760;BME280;3924;48.830;9.262;2023-03-25T03:39:45;97966.44;;;6.96;84.55
7760;BME280;3924;48.830;9.262;2023-03-25T03:42:20;97963.25;;;6.94;85.16
7760;BME280;3924;48.830;9.262;2023-03-25T03:44:54;97974.03;;;6.94;85.23
7760;BME280;3924;48.830;9.262;2023-03-25T03:47:28;97979.41;;;6.94;85.39
7760;BME280;3924;48.830;9.262;2023-03-25T03:49:59;97995.50;;;6.99;85.69
7760;BME280;3924;48.830;9.262;2023-03-25T03:52:32;98000.31;;;7.07;85.87
7760;BME280;3924;48.830;9.262;2023-03-25T03:55:01;98005.34;;;7.13;85.70
7760;BME280;3924;48.830;9.262;2023-03-25T03:57:41;98008.81;;;7.19;85.92
7760;BME280;3924;48.830;9.262;2023-03-25T04:00:15;98012.03;;;7.21;86.09
7760;BME280;3924;48.830;9.262;2023-03-25T04:02:49;98012.84;;;7.22;86.20
7760;BME280;3924;48.830;9.262;2023-03-25T04:05:19;98008.25;;;7.22;86.32
7760;BME280;3924;48.830;9.262;2023-03-25T04:08:29;98015.25;;;7.23;86.50
7760;BME280;3924;48.830;9.262;2023-03-25T04:11:16;98015.25;;;7.23;86.45
7760;BME280;3924;48.830;9.262;2023-03-25T04:13:42;98015.25;;;7.23;86.16
7760;BME280;3924;48.830;9.262;2023-03-25T04:16:11;98014.44;;;7.23;86.62
7760;BME280;3924;48.830;9.262;2023-03-25T04:18:38;98018.47;;;7.25;86.67
7760;BME280;3924;48.830;9.262;2023-03-25T04:21:04;98020.84;;;7.27;86.92
7760;BME280;3924;48.830;9.262;2023-03-25T04:23:31;98017.09;;;7.28;86.89
7760;BME280;3924;48.830;9.262;2023-03-25T04:25:59;98015.22;;;7.28;86.84
7760;BME280;3924;48.830;9.262;2023-03-25T04:28:28;98012.50;;;7.28;87.05
7760;BME280;3924;48.830;9.262;2023-03-25T04:30:54;98009.81;;;7.28;87.00
7760;BME280;3924;48.830;9.262;2023-03-25T04:33:23;98020.31;;;7.30;87.00
7760;BME280;3924;48.830;9.262;2023-03-25T04:35:50;98015.22;;;7.28;87.13
7760;BME280;3924;48.830;9.262;2023-03-25T04:38:18;98008.72;;;7.29;87.26
7760;BME280;3924;48.830;9.262;2023-03-25T04:40:46;98006.53;;;7.31;87.24
7760;BME280;3924;48.830;9.262;2023-03-25T04:43:16;98013.53;;;7.32;87.30
7760;BME280;3924;48.830;9.262;2023-03-25T04:45:43;98010.31;;;7.30;87.65
7760;BME280;3924;48.830;9.262;2023-03-25T04:48:20;98017.84;;;7.33;87.61
7760;BME280;3924;48.830;9.262;2023-03-25T04:50:48;98017.31;;;7.31;87.89
7760;BME280;3924;48.830;9.262;2023-03-25T04:53:17;98011.94;;;7.31;87.83
7760;BME280;3924;48.830;9.262;2023-03-25T04:55:44;98011.72;;;7.28;87.70
7760;BME280;3924;48.830;9.262;2023-03-25T04:58:13;98015.25;;;7.23;88.05
7760;BME280;3924;48.830;9.262;2023-03-25T05:00:42;98016.63;;;7.21;87.97
7760;BME280;3924;48.830;9.262;2023-03-25T05:03:10;98015.28;;;7.18;88.10
7760;BME280;3924;48.830;9.262;2023-03-25T05:05:37;98015.56;;;7.17;88.44
7760;BME280;3924;48.830;9.262;2023-03-25T05:08:04;98023.94;;;7.15;88.21
7760;BME280;3924;48.830;9.262;2023-03-25T05:10:30;98027.75;;;7.14;88.40
7760;BME280;3924;48.830;9.262;2023-03-25T05:13:04;98030.69;;;7.12;88.58
7760;BME280;3924;48.830;9.262;2023-03-25T05:15:32;98032.88;;;7.10;88.65
7760;BME280;3924;48.830;9.262;2023-03-25T05:18:10;98037.47;;;7.10;88.62
7760;BME280;3924;48.830;9.262;2023-03-25T05:20:39;98039.03;;;7.16;89.26
7760;BME280;3924;48.830;9.262;2023-03-25T05:23:06;98036.84;;;7.18;88.84
7760;BME280;3924;48.830;9.262;2023-03-25T05:25:48;98037.63;;;7.24;88.98
7760;BME280;3924;48.830;9.262;2023-03-25T05:28:17;98044.31;;;7.26;89.17
7760;BME280;3924;48.830;9.262;2023-03-25T05:30:45;98048.38;;;7.29;89.00
7760;BME280;3924;48.830;9.262;2023-03-25T05:33:14;98045.88;;;7.32;88.99
7760;BME280;3924;48.830;9.262;2023-03-25T05:35:42;98048.28;;;7.34;88.72
7760;BME280;3924;48.830;9.262;2023-03-25T05:38:09;98047.50;;;7.33;89.25
7760;BME280;3924;48.830;9.262;2023-03-25T05:40:44;98042.09;;;7.33;89.20
7760;BME280;3924;48.830;9.262;2023-03-25T05:43:15;98048.53;;;7.37;89.18
7760;BME280;3924;48.830;9.262;2023-03-25T05:45:42;98046.34;;;7.39;89.28
7760;BME280;3924;48.830;9.262;2023-03-25T05:48:10;98044.41;;;7.45;89.29
7760;BME280;3924;48.830;9.262;2023-03-25T05:50:36;98043.28;;;7.51;89.29
7760;BME280;3924;48.830;9.262;2023-03-25T05:53:04;98055.94;;;7.56;89.29
7760;BME280;3924;48.830;9.262;2023-03-25T05:55:30;98053.16;;;7.61;89.47
7760;BME280;3924;48.830;9.262;2023-03-25T05:57:57;98054.72;;;7.67;89.48
7760;BME280;3924;48.830;9.262;2023-03-25T06:00:24;98043.38;;;7.70;89.46
7760;BME280;3924;48.830;9.262;2023-03-25T06:02:50;98046.28;;;7.74;89.46
7760;BME280;3924;48.830;9.262;2023-03-25T06:05:17;98044.34;;;7.79;89.58
7760;BME280;3924;48.830;9.262;2023-03-25T06:07:49;98054.50;;;7.87;89.42
7760;BME280;3924;48.830;9.262;2023-03-25T06:10:15;98054.44;;;7.92;89.77
7760;BME280;3924;48.830;9.262;2023-03-25T06:12:44;98050.31;;;8.00;89.83
7760;BME280;3924;48.830;9.262;2023-03-25T06:15:13;98055.34;;;8.07;89.67
7760;BME280;3924;48.830;9.262;2023-03-25T06:17:39;98057.19;;;8.11;89.48
7760;BME280;3924;48.830;9.262;2023-03-25T06:20:09;98064.41;;;8.16;89.44
7760;BME280;3924;48.830;9.262;2023-03-25T06:22:38;98075.22;;;8.16;89.34
7760;BME280;3924;48.830;9.262;2023-03-25T06:25:05;98073.06;;;8.18;89.23
7760;BME280;3924;48.830;9.262;2023-03-25T06:27:32;98072.50;;;8.16;89.19
7760;BME280;3924;48.830;9.262;2023-03-25T06:30:01;98073.31;;;8.16;89.30
7760;BME280;3924;48.830;9.262;2023-03-25T06:32:28;98063.84;;;8.19;89.55
7760;BME280;3924;48.830;9.262;2023-03-25T06:34:56;98075.09;;;8.26;89.38
7760;BME280;3924;48.830;9.262;2023-03-25T06:37:22;98082.91;;;8.28;89.43
7760;BME280;3924;48.830;9.262;2023-03-25T06:39:51;98073.50;;;8.25;89.46
7760;BME280;3924;48.830;9.262;2023-03-25T06:42:22;98071.09;;;8.23;89.29
7760;BME280;3924;48.830;9.262;2023-03-25T06:44:49;98073.56;;;8.20;89.36
7760;BME280;3924;48.830;9.262;2023-03-25T06:47:16;98073.84;;;8.42;90.07
7760;BME280;3924;48.830;9.262;2023-03-25T06:49:43;98073.78;;;8.66;89.60
7760;BME280;3924;48.830;9.262;2023-03-25T06:52:09;98081.09;;;8.85;89.58
7760;BME280;3924;48.830;9.262;2023-03-25T06:54:37;98075.69;;;8.85;89.04
7760;BME280;3924;48.830;9.262;2023-03-25T06:57:05;98076.88;;;8.79;89.05
7760;BME280;3924;48.830;9.262;2023-03-25T06:59:31;98072.63;;;8.72;89.30
7760;BME280;3924;48.830;9.262;2023-03-25T07:01:58;98077.81;;;8.69;89.25
7760;BME280;3924;48.830;9.262;2023-03-25T07:04:25;98062.19;;;8.66;89.46
7760;BME280;3924;48.830;9.262;2023-03-25T07:06:51;98074.25;;;8.73;89.51
7760;BME280;3924;48.830;9.262;2023-03-25T07:09:19;98074.88;;;8.84;89.61
7760;BME280;3924;48.830;9.262;2023-03-25T07:11:45;98069.75;;;9.01;89.65
7760;BME280;3924;48.830;9.262;2023-03-25T07:14:11;98076.22;;;9.19;89.14
7760;BME280;3924;48.830;9.262;2023-03-25T07:16:38;98075.88;;;9.40;89.08
7760;BME280;3924;48.830;9.262;2023-03-25T07:19:04;98076.94;;;9.57;89.04
7760;BME280;3924;48.830;9.262;2023-03-25T07:21:31;98075.44;;;9.65;88.39
7760;BME280;3924;48.830;9.262;2023-03-25T07:23:57;98074.31;;;9.52;88.34
7760;BME280;3924;48.830;9.262;2023-03-25T07:26:24;98078.91;;;9.38;88.43
7760;BME280;3924;48.830;9.262;2023-03-25T07:28:50;98082.97;;;9.22;88.67
7760;BME280;3924;48.830;9.262;2023-03-25T07:31:17;98079.59;;;9.11;88.98
7760;BME280;3924;48.830;9.262;2023-03-25T07:33:43;98074.91;;;9.17;89.18
7760;BME280;3924;48.830;9.262;2023-03-25T07:36:11;98079.47;;;9.21;89.51
7760;BME280;3924;48.830;9.262;2023-03-25T07:38:37;98080.84;;;9.19;89.16
7760;BME280;3924;48.830;9.262;2023-03-25T07:41:05;98078.81;;;9.11;89.41
7760;BME280;3924;48.830;9.262;2023-03-25T07:43:32;98077.56;;;9.22;89.48
7760;BME280;3924;48.830;9.262;2023-03-25T07:45:59;98090.50;;;9.39;89.44
7760;BME280;3924;48.830;9.262;2023-03-25T07:48:26;98077.16;;;9.61;88.95
7760;BME280;3924;48.830;9.262;2023-03-25T07:50:53;98087.63;;;9.81;88.93
7760;BME280;3924;48.830;9.262;2023-03-25T07:53:19;98081.22;;;9.91;88.31
7760;BME280;3924;48.830;9.262;2023-03-25T07:55:46;98067.97;;;10.03;88.34
7760;BME280;3924;48.830;9.262;2023-03-25T07:58:17;98077.81;;;10.13;88.26
7760;BME280;3924;48.830;9.262;2023-03-25T08:00:44;98084.34;;;10.26;88.24
7760;BME280;3924;48.830;9.262;2023-03-25T08:03:11;98070.38;;;10.19;88.16
7760;BME280;3924;48.830;9.262;2023-03-25T08:05:44;98068.25;;;10.15;88.59
7760;BME280;3924;48.830;9.262;2023-03-25T08:08:11;98069.28;;;10.20;88.23
7760;BME280;3924;48.830;9.262;2023-03-25T08:10:37;98071.97;;;10.20;88.31
7760;BME280;3924;48.830;9.262;2023-03-25T08:13:04;98067.19;;;10.17;88.25
7760;BME280;3924;48.830;9.262;2023-03-25T08:15:30;98056.53;;;10.20;88.24
7760;BME280;3924;48.830;9.262;2023-03-25T08:17:57;98060.97;;;10.16;88.15
7760;BME280;3924;48.830;9.262;2023-03-25T08:20:23;98052.13;;;10.10;88.29
7760;BME280;3924;48.830;9.262;2023-03-25T08:22:50;98058.69;;;10.23;88.54
7760;BME280;3924;48.830;9.262;2023-03-25T08:25:16;98060.25;;;10.38;88.18
7760;BME280;3924;48.830;9.262;2023-03-25T08:27:43;98060.34;;;10.47;87.97
7760;BME280;3924;48.830;9.262;2023-03-25T08:30:09;98064.97;;;10.46;87.89
7760;BME280;3924;48.830;9.262;2023-03-25T08:32:36;98063.84;;;10.47;87.90
7760;BME280;3924;48.830;9.262;2023-03-25T08:35:04;98067.75;;;10.55;88.01
7760;BME280;3924;48.830;9.262;2023-03-25T08:37:32;98052.59;;;10.54;87.73
7760;BME280;3924;48.830;9.262;2023-03-25T08:40:04;98057.72;;;10.55;87.70
7760;BME280;3924;48.830;9.262;2023-03-25T08:42:33;98053.72;;;10.53;87.84
7760;BME280;3924;48.830;9.262;2023-03-25T08:44:59;98054.84;;;10.38;87.72
7760;BME280;3924;48.830;9.262;2023-03-25T08:47:26;98065.56;;;10.29;87.98
7760;BME280;3924;48.830;9.262;2023-03-25T08:49:52;98061.16;;;10.20;88.18
7760;BME280;3924;48.830;9.262;2023-03-25T08:52:19;98066.16;;;10.12;88.05
7760;BME280;3924;48.830;9.262;2023-03-25T08:54:46;98067.06;;;10.08;88.21
7760;BME280;3924;48.830;9.262;2023-03-25T08:57:12;98080.31;;;10.09;88.19
7760;BME280;3924;48.830;9.262;2023-03-25T08:59:39;98079.31;;;10.05;87.63
7760;BME280;3924;48.830;9.262;2023-03-25T09:02:06;98070.28;;;9.96;87.95
7760;BME280;3924;48.830;9.262;2023-03-25T09:04:32;98074.59;;;9.97;87.77
7760;BME280;3924;48.830;9.262;2023-03-25T09:06:59;98079.59;;;9.90;87.86
7760;BME280;3924;48.830;9.262;2023-03-25T09:09:38;98093.03;;;9.68;87.59
7760;BME280;3924;48.830;9.262;2023-03-25T09:12:05;98094.16;;;9.48;87.78
7760;BME280;3924;48.830;9.262;2023-03-25T09:14:32;98098.50;;;9.30;88.29
7760;BME280;3924;48.830;9.262;2023-03-25T09:16:58;98079.84;;;9.15;88.30
7760;BME280;3924;48.830;9.262;2023-03-25T09:19:25;98075.88;;;9.40;89.02
7760;BME280;3924;48.830;9.262;2023-03-25T09:21:52;98066.22;;;9.66;88.03
7760;BME280;3924;48.830;9.262;2023-03-25T09:24:18;98070.88;;;9.93;87.48
7760;BME280;3924;48.830;9.262;2023-03-25T09:26:47;98073.78;;;9.97;87.40
7760;BME280;3924;48.830;9.262;2023-03-25T09:29:14;98085.50;;;9.92;87.56
7760;BME280;3924;48.830;9.262;2023-03-25T09:31:41;98075.31;;;9.89;87.51
7760;BME280;3924;48.830;9.262;2023-03-25T09:34:07;98073.56;;;9.93;87.71
7760;BME280;3924;48.830;9.262;2023-03-25T09:36:34;98075.19;;;9.94;87.56
7760;BME280;3924;48.830;9.262;2023-03-25T09:39:00;98068.16;;;9.93;87.18
7760;BME280;3924;48.830;9.262;2023-03-25T09:44:12;98072.59;;;9.89;87.49
7760;BME280;3924;48.830;9.262;2023-03-25T09:46:42;98068.81;;;10.31;87.26
7760;BME280;3924;48.830;9.262;2023-03-25T09:49:15;98067.00;;;10.77;86.20
7760;BME280;3924;48.830;9.262;2023-03-25T09:51:45;98058.00;;;10.90;85.68
7760;BME280;3924;48.830;9.262;2023-03-25T09:54:21;98058.66;;;10.87;85.65
7760;BME280;3924;48.830;9.262;2023-03-25T09:56:49;98064.59;;;10.75;85.92
7760;BME280;3924;48.830;9.262;2023-03-25T09:59:21;98062.53;;;10.58;86.07
7760;BME280;3924;48.830;9.262;2023-03-25T10:01:55;98057.47;;;10.43;86.06
7760;BME280;3924;48.830;9.262;2023-03-25T10:04:39;98057.75;;;10.28;86.62
7760;BME280;3924;48.830;9.262;2023-03-25T10:12:34;98051.63;;;11.08;85.71
7760;BME280;3924;48.830;9.262;2023-03-25T10:18:04;98053.22;;;11.32;84.56
7760;BME280;3924;48.830;9.262;2023-03-25T10:20:51;98046.50;;;11.29;84.98
7760;BME280;3924;48.830;9.262;2023-03-25T10:23:29;98044.94;;;11.37;85.15
7760;BME280;3924;48.830;9.262;2023-03-25T10:26:20;98044.00;;;11.72;84.53
7760;BME280;3924;48.830;9.262;2023-03-25T10:29:04;98039.28;;;12.26;83.56
7760;BME280;3924;48.830;9.262;2023-03-25T10:31:38;98046.38;;;12.62;82.92
7760;BME280;3924;48.830;9.262;2023-03-25T10:34:16;98029.25;;;12.36;82.94
7760;BME280;3924;48.830;9.262;2023-03-25T10:36:53;98037.56;;;12.30;83.19
7760;BME280;3924;48.830;9.262;2023-03-25T10:39:24;98023.03;;;12.44;82.74
7760;BME280;3924;48.830;9.262;2023-03-25T10:42:03;98020.41;;;12.21;82.68
7760;BME280;3924;48.830;9.262;2023-03-25T10:44:37;98014.75;;;11.92;83.44
7760;BME280;3924;48.830;9.262;2023-03-25T10:47:11;98031.91;;;11.78;83.35
7760;BME280;3924;48.830;9.262;2023-03-25T10:49:40;98028.63;;;11.82;83.03
7760;BME280;3924;48.830;9.262;2023-03-25T10:52:08;98025.53;;;11.74;82.98
7760;BME280;3924;48.830;9.262;2023-03-25T10:54:38;98023.28;;;11.76;82.82
7760;BME280;3924;48.830;9.262;2023-03-25T10:57:17;98017.06;;;11.76;82.68
7760;BME280;3924;48.830;9.262;2023-03-25T10:59:56;98017.19;;;11.71;82.71
7760;BME280;3924;48.830;9.262;2023-03-25T11:02:27;98013.91;;;11.83;82.34
7760;BME280;3924;48.830;9.262;2023-03-25T11:04:59;98016.06;;;12.12;81.59
7760;BME280;3924;48.830;9.262;2023-03-25T11:07:44;98025.94;;;12.73;80.38
7760;BME280;3924;48.830;9.262;2023-03-25T11:10:25;98033.63;;;12.71;79.89
7760;BME280;3924;48.830;9.262;2023-03-25T11:12:57;98029.13;;;12.75;79.81
7760;BME280;3924;48.830;9.262;2023-03-25T11:15:32;98021.91;;;12.97;79.44
7760;BME280;3924;48.830;9.262;2023-03-25T11:18:03;98022.72;;;13.14;79.09
7760;BME280;3924;48.830;9.262;2023-03-25T11:20:39;98026.56;;;13.22;78.65
7760;BME280;3924;48.830;9.262;2023-03-25T11:23:29;98031.50;;;13.03;78.71
7760;BME280;3924;48.830;9.262;2023-03-25T11:26:03;98024.81;;;13.18;77.94
7760;BME280;3924;48.830;9.262;2023-03-25T11:28:36;98041.44;;;12.90;78.19
7760;BME280;3924;48.830;9.262;2023-03-25T11:33:36;98012.63;;;13.24;77.16
7760;BME280;3924;48.830;9.262;2023-03-25T11:36:30;98022.72;;;13.14;76.98
7760;BME280;3924;48.830;9.262;2023-03-25T11:39:00;98009.41;;;13.39;76.33
7760;BME280;3924;48.830;9.262;2023-03-25T11:41:31;98011.75;;;13.58;75.75
7760;BME280;3924;48.830;9.262;2023-03-25T11:44:03;97994.09;;;13.64;75.09
7760;BME280;3924;48.830;9.262;2023-03-25T11:46:31;98001.66;;;13.58;75.04
7760;BME280;3924;48.830;9.262;2023-03-25T11:49:10;98007.66;;;13.17;75.06
7760;BME280;3924;48.830;9.262;2023-03-25T11:51:41;98021.28;;;13.08;74.99
7760;BME280;3924;48.830;9.262;2023-03-25T11:54:11;98006.22;;;13.28;74.52
7760;BME280;3924;48.830;9.262;2023-03-25T11:56:40;97999.34;;;13.22;74.43
7760;BME280;3924;48.830;9.262;2023-03-25T11:59:17;97995.03;;;13.21;73.80
7760;BME280;3924;48.830;9.262;2023-03-25T12:01:48;98009.13;;;13.06;73.93
7760;BME280;3924;48.830;9.262;2023-03-25T12:04:20;97986.88;;;12.86;73.43
7760;BME280;3924;48.830;9.262;2023-03-25T12:07:00;98008.81;;;12.81;73.49
7760;BME280;3924;48.830;9.262;2023-03-25T12:09:30;98007.53;;;12.87;72.91
7760;BME280;3924;48.830;9.262;2023-03-25T12:17:45;97994.75;;;12.71;72.08
7760;BME280;3924;48.830;9.262;2023-03-25T12:20:33;97998.53;;;13.13;71.02
7760;BME280;3924;48.830;9.262;2023-03-25T12:23:38;97991.25;;;13.52;69.65
7760;BME280;3924;48.830;9.262;2023-03-25T12:34:10;98008.44;;;14.41;66.75
7760;BME280;3924;48.830;9.262;2023-03-25T12:39:43;98019.25;;;14.08;66.85
7760;BME280;3924;48.830;9.262;2023-03-25T12:42:23;98048.66;;;13.93;66.67
7760;BME280;3924;48.830;9.262;2023-03-25T12:45:15;98037.09;;;13.50;66.98
7760;BME280;3924;48.830;9.262;2023-03-25T12:48:22;98054.59;;;13.31;67.03
7760;BME280;3924;48.830;9.262;2023-03-25T12:53:57;98054.59;;;12.14;68.44
7760;BME280;3924;48.830;9.262;2023-03-25T12:56:45;98077.41;;;11.42;70.20
7760;BME280;3924;48.830;9.262;2023-03-25T13:02:29;98062.03;;;11.91;69.59
7760;BME280;3924;48.830;9.262;2023-03-25T13:07:52;98044.16;;;12.81;67.63
7760;BME280;3924;48.830;9.262;2023-03-25T13:10:24;98061.63;;;12.98;67.31
7760;BME280;3924;48.830;9.262;2023-03-25T13:12:56;98046.09;;;13.07;67.30
7760;BME280;3924;48.830;9.262;2023-03-25T13:18:10;98043.88;;;13.26;66.52
7760;BME280;3924;48.830;9.262;2023-03-25T13:21:19;98051.66;;;13.54;66.38
7760;BME280;3924;48.830;9.262;2023-03-25T13:23:41;98043.13;;;13.64;65.67
7760;BME280;3924;48.830;9.262;2023-03-25T13:26:11;98031.91;;;13.65;65.71
7760;BME280;3924;48.830;9.262;2023-03-25T13:28:45;98036.31;;;13.40;65.81
7760;BME280;3924;48.830;9.262;2023-03-25T13:31:16;98049.75;;;13.46;65.82
7760;BME280;3924;48.830;9.262;2023-03-25T13:33:49;98038.03;;;13.54;65.61
7760;BME280;3924;48.830;9.262;2023-03-25T13:36:25;98044.63;;;13.53;65.28
7760;BME280;3924;48.830;9.262;2023-03-25T13:38:56;98019.19;;;13.87;64.57
7760;BME280;3924;48.830;9.262;2023-03-25T13:41:33;98041.28;;;13.85;64.28
7760;BME280;3924;48.830;9.262;2023-03-25T13:46:59;98034.94;;;14.11;63.73
7760;BME280;3924;48.830;9.262;2023-03-25T13:49:53;98035.22;;;14.18;63.25
7760;BME280;3924;48.830;9.262;2023-03-25T13:52:25;98018.53;;;14.19;63.25
7760;BME280;3924;48.830;9.262;2023-03-25T13:54:58;98015.28;;;14.26;63.15
7760;BME280;3924;48.830;9.262;2023-03-25T13:58:01;98017.97;;;14.35;62.80
7760;BME280;3924;48.830;9.262;2023-03-25T14:03:44;98034.19;;;14.31;62.11
7760;BME280;3924;48.830;9.262;2023-03-25T14:08:59;98037.44;;;13.39;63.71
7760;BME280;3924;48.830;9.262;2023-03-25T14:11:42;98040.00;;;13.10;64.16
7760;BME280;3924;48.830;9.262;2023-03-25T14:14:16;98049.28;;;12.74;64.55
7760;BME280;3924;48.830;9.262;2023-03-25T14:16:47;98072.25;;;12.33;65.11
7760;BME280;3924;48.830;9.262;2023-03-25T14:19:20;98092.91;;;11.95;65.71
7760;BME280;3924;48.830;9.262;2023-03-25T14:21:50;98085.16;;;11.57;66.40
7760;BME280;3924;48.830;9.262;2023-03-25T14:24:25;98107.97;;;11.11;67.47
7760;BME280;3924;48.830;9.262;2023-03-25T14:26:58;98104.28;;;11.07;67.63
7760;BME280;3924;48.830;9.262;2023-03-25T14:29:36;98073.16;;;11.58;66.51
7760;BME280;3924;48.830;9.262;2023-03-25T14:32:23;98087.59;;;11.90;65.87
7760;BME280;3924;48.830;9.262;2023-03-25T14:34:51;98069.81;;;12.15;65.81
7760;BME280;3924;48.830;9.262;2023-03-25T14:37:23;98055.16;;;12.42;64.87
7760;BME280;3924;48.830;9.262;2023-03-25T14:39:54;98059.84;;;12.67;64.59
7760;BME280;3924;48.830;9.262;2023-03-25T14:42:41;98056.66;;;12.82;63.76
7760;BME280;3924;48.830;9.262;2023-03-25T14:45:37;98048.16;;;13.01;63.70
7760;BME280;3924;48.830;9.262;2023-03-25T14:48:22;98061.13;;;13.13;63.13
7760;BME280;3924;48.830;9.262;2023-03-25T14:54:25;98024.97;;;13.21;62.83
7760;BME280;3924;48.830;9.262;2023-03-25T14:56:59;98026.38;;;13.36;62.39
7760;BME280;3924;48.830;9.262;2023-03-25T14:59:40;98021.88;;;13.49;61.89
7760;BME280;3924;48.830;9.262;2023-03-25T15:04:40;98035.25;;;13.80;61.38
7760;BME280;3924;48.830;9.262;2023-03-25T15:07:10;98030.44;;;13.77;61.15
7760;BME280;3924;48.830;9.262;2023-03-25T15:09:48;98023.59;;;13.62;61.22
7760;BME280;3924;48.830;9.262;2023-03-25T15:12:19;98024.91;;;13.56;61.43
7760;BME280;3924;48.830;9.262;2023-03-25T15:14:54;98016.09;;;13.50;61.23